sensor_id;sensor_type;location;lat;lon;timestamp;pressure;altitude;pressure_sealevel;temperature;humidity
44988;BME280;35735;52.226;21.254;2022-11-20T00:04:13;100291.03;;;-4.70;100.00
44988;BME280;35735;52.226;21.254;2022-11-20T00:09:16;100287.41;;;-4.72;100.00
44988;BME280;35735;52.226;21.254;2022-11-20T00:14:17;100295.22;;;-4.73;100.00
44988;BME280;35735;52.226;21.254;2022-11-20T00:19:19;100298.53;;;-4.77;100.00
44988;BME280;35735;52.226;21.254;2022-11-20T00:24:23;100293.97;;;-4.80;100.00
44988;BME280;35735;52.226;21.254;2022-11-20T00:29:31;100287.63;;;-4.84;100.00
44988;BME280;35735;52.226;21.254;2022-11-20T00:34:32;100282.06;;;-4.88;100.00
44988;BME280;35735;52.226;21.254;2022-11-20T00:39:34;100283.72;;;-4.90;100.00
44988;BME280;35735;52.226;21.254;2022-11-20T00:44:35;100292.16;;;-4.96;100.00
44988;BME280;35735;52.226;21.254;2022-11-20T00:49:39;100285.63;;;-5.03;100.00
44988;BME280;35735;52.226;21.254;2022-11-20T00:54:40;100283.69;;;-5.05;100.00
44988;BME280;35735;52.226;21.254;2022-11-20T00:59:42;100278.34;;;-5.07;100.00
44988;BME280;35735;52.226;21.254;2022-11-20T01:04:44;100276.53;;;-5.08;100.00
44988;BME280;35735;52.226;21.254;2022-11-20T01:09:45;100269.06;;;-5.15;100.00
44988;BME280;35735;52.226;21.254;2022-11-20T01:14:47;100269.81;;;-5.17;100.00
44988;BME280;35735;52.226;21.254;2022-11-20T01:19:49;100263.72;;;-5.16;100.00
44988;BME280;35735;52.226;21.254;2022-11-20T01:24:51;100262.81;;;-5.17;100.00
44988;BME280;35735;52.226;21.254;2022-11-20T01:29:52;100251.50;;;-5.16;100.00
44988;BME280;35735;52.226;21.254;2022-11-20T01:34:55;100252.28;;;-5.17;100.00
44988;BME280;35735;52.226;21.254;2022-11-20T01:39:56;100258.53;;;-5.15;100.00
44988;BME280;35735;52.226;21.254;2022-11-20T01:44:59;100255.91;;;-5.15;100.00
44988;BME280;35735;52.226;21.254;2022-11-20T01:50:05;100262.53;;;-5.22;100.00
44988;BME280;35735;52.226;21.254;2022-11-20T01:55:20;100257.06;;;-5.25;100.00
44988;BME280;35735;52.226;21.254;2022-11-20T02:00:24;100248.38;;;-5.24;100.00
44988;BME280;35735;52.226;21.254;2022-11-20T02:05:38;100241.13;;;-5.28;100.00
44988;BME280;35735;52.226;21.254;2022-11-20T02:10:43;100243.69;;;-5.29;100.00
44988;BME280;35735;52.226;21.254;2022-11-20T02:15:50;100225.88;;;-5.33;100.00
44988;BME280;35735;52.226;21.254;2022-11-20T02:21:01;100224.88;;;-5.35;100.00
44988;BME280;35735;52.226;21.254;2022-11-20T02:26:11;100226.50;;;-5.37;100.00
44988;BME280;35735;52.226;21.254;2022-11-20T02:31:13;100215.06;;;-5.38;100.00
44988;BME280;35735;52.226;21.254;2022-11-20T02:36:16;100231.13;;;-5.33;100.00
44988;BME280;35735;52.226;21.254;2022-11-20T02:41:20;100220.09;;;-5.28;100.00
44988;BME280;35735;52.226;21.254;2022-11-20T02:46:24;100222.88;;;-5.25;100.00
44988;BME280;35735;52.226;21.254;2022-11-20T02:51:25;100234.44;;;-5.23;100.00
44988;BME280;35735;52.226;21.254;2022-11-20T02:56:29;100241.47;;;-5.22;100.00
44988;BME280;35735;52.226;21.254;2022-11-20T03:01:30;100246.50;;;-5.26;100.00
44988;BME280;35735;52.226;21.254;2022-11-20T03:06:33;100254.91;;;-5.17;100.00
44988;BME280;35735;52.226;21.254;2022-11-20T03:11:34;100241.06;;;-5.14;100.00
44988;BME280;35735;52.226;21.254;2022-11-20T03:16:35;100242.75;;;-5.15;100.00
44988;BME280;35735;52.226;21.254;2022-11-20T03:21:37;100242.12;;;-5.11;100.00
44988;BME280;35735;52.226;21.254;2022-11-20T03:26:39;100234.59;;;-5.05;100.00
44988;BME280;35735;52.226;21.254;2022-11-20T03:31:41;100246.28;;;-4.99;100.00
44988;BME280;35735;52.226;21.254;2022-11-20T03:36:43;100235.69;;;-5.01;100.00
44988;BME280;35735;52.226;21.254;2022-11-20T03:41:45;100224.81;;;-4.92;100.00
44988;BME280;35735;52.226;21.254;2022-11-20T03:46:46;100225.69;;;-4.92;100.00
44988;BME280;35735;52.226;21.254;2022-11-20T03:51:46;100225.50;;;-4.95;100.00
44988;BME280;35735;52.226;21.254;2022-11-20T03:56:47;100231.34;;;-5.00;100.00
44988;BME280;35735;52.226;21.254;2022-11-20T04:01:48;100230.78;;;-5.10;100.00
44988;BME280;35735;52.226;21.254;2022-11-20T04:06:52;100221.19;;;-5.24;100.00
44988;BME280;35735;52.226;21.254;2022-11-20T04:11:53;100230.06;;;-5.22;100.00
44988;BME280;35735;52.226;21.254;2022-11-20T04:16:54;100223.91;;;-5.23;100.00
44988;BME280;35735;52.226;21.254;2022-11-20T04:21:54;100212.28;;;-5.26;100.00
44988;BME280;35735;52.226;21.254;2022-11-20T04:26:55;100212.72;;;-5.33;100.00
44988;BME280;35735;52.226;21.254;2022-11-20T04:31:56;100216.34;;;-5.31;100.00
44988;BME280;35735;52.226;21.254;2022-11-20T04:36:57;100210.09;;;-5.33;100.00
44988;BME280;35735;52.226;21.254;2022-11-20T04:41:58;100211.25;;;-5.43;100.00
44988;BME280;35735;52.226;21.254;2022-11-20T04:46:59;100202.47;;;-5.44;100.00
44988;BME280;35735;52.226;21.254;2022-11-20T04:52:00;100203.72;;;-5.52;100.00
44988;BME280;35735;52.226;21.254;2022-11-20T04:57:01;100198.47;;;-5.52;100.00
44988;BME280;35735;52.226;21.254;2022-11-20T05:02:02;100185.84;;;-5.57;100.00
44988;BME280;35735;52.226;21.254;2022-11-20T05:07:03;100181.12;;;-5.63;100.00
44988;BME280;35735;52.226;21.254;2022-11-20T05:12:07;100184.00;;;-5.73;100.00
44988;BME280;35735;52.226;21.254;2022-11-20T05:17:12;100175.41;;;-5.71;100.00
44988;BME280;35735;52.226;21.254;2022-11-20T05:22:12;100172.97;;;-5.68;100.00
44988;BME280;35735;52.226;21.254;2022-11-20T05:27:13;100175.69;;;-5.66;100.00
44988;BME280;35735;52.226;21.254;2022-11-20T05:32:15;100170.50;;;-5.65;100.00
44988;BME280;35735;52.226;21.254;2022-11-20T05:37:18;100173.97;;;-5.66;100.00
44988;BME280;35735;52.226;21.254;2022-11-20T05:42:19;100170.50;;;-5.65;100.00
44988;BME280;35735;52.226;21.254;2022-11-20T05:47:20;100164.34;;;-5.65;100.00
44988;BME280;35735;52.226;21.254;2022-11-20T05:52:21;100158.19;;;-5.66;100.00
44988;BME280;35735;52.226;21.254;2022-11-20T05:57:22;100157.81;;;-5.72;100.00
44988;BME280;35735;52.226;21.254;2022-11-20T06:02:26;100159.34;;;-5.75;100.00
44988;BME280;35735;52.226;21.254;2022-11-20T06:07:27;100162.63;;;-5.80;100.00
44988;BME280;35735;52.226;21.254;2022-11-20T06:12:28;100164.41;;;-5.79;100.00
44988;BME280;35735;52.226;21.254;2022-11-20T06:17:39;100157.53;;;-5.77;100.00
44988;BME280;35735;52.226;21.254;2022-11-20T06:22:40;100156.72;;;-5.75;100.00
44988;BME280;35735;52.226;21.254;2022-11-20T06:27:42;100156.72;;;-5.75;100.00
44988;BME280;35735;52.226;21.254;2022-11-20T06:32:49;100155.16;;;-5.87;100.00
44988;BME280;35735;52.226;21.254;2022-11-20T06:37:50;100149.37;;;-5.96;100.00
44988;BME280;35735;52.226;21.254;2022-11-20T06:42:54;100153.63;;;-5.98;100.00
44988;BME280;35735;52.226;21.254;2022-11-20T06:47:57;100150.53;;;-5.91;100.00
44988;BME280;35735;52.226;21.254;2022-11-20T06:53:01;100148.00;;;-5.89;100.00
44988;BME280;35735;52.226;21.254;2022-11-20T06:58:03;100148.44;;;-5.82;100.00
44988;BME280;35735;52.226;21.254;2022-11-20T07:03:05;100154.19;;;-5.74;100.00
44988;BME280;35735;52.226;21.254;2022-11-20T07:08:07;100148.19;;;-5.71;100.00
44988;BME280;35735;52.226;21.254;2022-11-20T07:13:08;100151.84;;;-5.69;100.00
44988;BME280;35735;52.226;21.254;2022-11-20T07:18:09;100154.72;;;-5.65;100.00
44988;BME280;35735;52.226;21.254;2022-11-20T07:23:10;100139.50;;;-5.55;100.00
44988;BME280;35735;52.226;21.254;2022-11-20T07:28:11;100138.34;;;-5.46;100.00
44988;BME280;35735;52.226;21.254;2022-11-20T07:33:14;100133.78;;;-5.33;100.00
44988;BME280;35735;52.226;21.254;2022-11-20T07:38:15;100128.25;;;-5.23;100.00
44988;BME280;35735;52.226;21.254;2022-11-20T07:43:16;100121.06;;;-5.11;100.00
44988;BME280;35735;52.226;21.254;2022-11-20T07:48:17;100124.56;;;-4.95;100.00
44988;BME280;35735;52.226;21.254;2022-11-20T07:53:18;100129.22;;;-4.75;100.00
44988;BME280;35735;52.226;21.254;2022-11-20T07:58:20;100117.94;;;-4.57;100.00
44988;BME280;35735;52.226;21.254;2022-11-20T08:03:21;100120.81;;;-4.36;100.00
44988;BME280;35735;52.226;21.254;2022-11-20T08:08:22;100121.91;;;-4.16;100.00
44988;BME280;35735;52.226;21.254;2022-11-20T08:13:24;100115.66;;;-4.02;100.00
44988;BME280;35735;52.226;21.254;2022-11-20T08:18:25;100114.97;;;-3.81;100.00
44988;BME280;35735;52.226;21.254;2022-11-20T08:23:26;100107.03;;;-3.65;100.00
44988;BME280;35735;52.226;21.254;2022-11-20T08:28:29;100108.72;;;-3.49;100.00
44988;BME280;35735;52.226;21.254;2022-11-20T08:33:30;100106.94;;;-3.32;100.00
44988;BME280;35735;52.226;21.254;2022-11-20T08:38:34;100104.75;;;-3.23;100.00
44988;BME280;35735;52.226;21.254;2022-11-20T08:43:35;100088.69;;;-3.09;100.00
44988;BME280;35735;52.226;21.254;2022-11-20T08:48:36;100086.75;;;-2.95;100.00
44988;BME280;35735;52.226;21.254;2022-11-20T08:53:38;100090.19;;;-2.78;100.00
44988;BME280;35735;52.226;21.254;2022-11-20T08:58:40;100081.41;;;-2.59;100.00
44988;BME280;35735;52.226;21.254;2022-11-20T09:03:41;100083.19;;;-2.40;100.00
44988;BME280;35735;52.226;21.254;2022-11-20T09:08:44;100073.44;;;-2.22;100.00
44988;BME280;35735;52.226;21.254;2022-11-20T09:13:45;100080.59;;;-2.00;100.00
44988;BME280;35735;52.226;21.254;2022-11-20T09:18:46;100075.22;;;-1.82;100.00
44988;BME280;35735;52.226;21.254;2022-11-20T09:23:46;100069.19;;;-1.58;100.00
44988;BME280;35735;52.226;21.254;2022-11-20T09:28:47;100042.41;;;-1.45;100.00
44988;BME280;35735;52.226;21.254;2022-11-20T09:33:47;100036.66;;;-1.35;100.00
44988;BME280;35735;52.226;21.254;2022-11-20T09:38:48;100041.00;;;-1.14;100.00
44988;BME280;35735;52.226;21.254;2022-11-20T09:54:48;100019.63;;;-0.75;100.00
44988;BME280;35735;52.226;21.254;2022-11-20T09:59:53;100013.94;;;-0.62;100.00
44988;BME280;35735;52.226;21.254;2022-11-20T10:05:11;100008.34;;;-0.45;100.00
44988;BME280;35735;52.226;21.254;2022-11-20T10:10:29;100014.25;;;-0.30;100.00
44988;BME280;35735;52.226;21.254;2022-11-20T10:15:43;100010.19;;;-0.20;100.00
44988;BME280;35735;52.226;21.254;2022-11-20T10:32:20;99998.00;;;0.11;100.00
44988;BME280;35735;52.226;21.254;2022-11-20T10:37:27;99997.62;;;0.26;100.00
44988;BME280;35735;52.226;21.254;2022-11-20T10:42:44;99989.78;;;0.29;100.00
44988;BME280;35735;52.226;21.254;2022-11-20T10:47:47;99985.78;;;0.42;100.00
44988;BME280;35735;52.226;21.254;2022-11-20T10:53:03;99986.03;;;0.49;100.00
44988;BME280;35735;52.226;21.254;2022-11-20T10:58:14;99985.28;;;0.53;100.00
44988;BME280;35735;52.226;21.254;2022-11-20T11:03:29;99977.56;;;0.61;100.00
44988;BME280;35735;52.226;21.254;2022-11-20T11:08:35;99970.59;;;0.65;100.00
44988;BME280;35735;52.226;21.254;2022-11-20T11:13:38;99962.69;;;0.66;100.00
44988;BME280;35735;52.226;21.254;2022-11-20T11:18:38;99974.47;;;0.74;100.00
44988;BME280;35735;52.226;21.254;2022-11-20T11:23:41;99976.19;;;0.72;100.00
44988;BME280;35735;52.226;21.254;2022-11-20T11:28:55;99978.31;;;0.84;100.00
44988;BME280;35735;52.226;21.254;2022-11-20T11:34:14;99968.63;;;0.86;100.00
44988;BME280;35735;52.226;21.254;2022-11-20T11:39:17;99965.09;;;0.86;100.00
44988;BME280;35735;52.226;21.254;2022-11-20T11:44:30;99968.63;;;0.86;100.00
44988;BME280;35735;52.226;21.254;2022-11-20T11:49:32;99964.19;;;0.85;100.00
44988;BME280;35735;52.226;21.254;2022-11-20T11:54:48;99964.00;;;0.79;100.00
44988;BME280;35735;52.226;21.254;2022-11-20T12:00:08;99952.50;;;0.80;100.00
44988;BME280;35735;52.226;21.254;2022-11-20T12:05:30;99957.03;;;0.83;100.00
44988;BME280;35735;52.226;21.254;2022-11-20T12:10:45;99949.09;;;0.84;100.00
44988;BME280;35735;52.226;21.254;2022-11-20T12:15:50;99940.28;;;0.85;100.00
44988;BME280;35735;52.226;21.254;2022-11-20T12:26:43;99933.25;;;0.87;100.00
44988;BME280;35735;52.226;21.254;2022-11-20T12:37:22;99929.25;;;0.73;100.00
44988;BME280;35735;52.226;21.254;2022-11-20T12:54:04;99911.53;;;0.72;100.00
44988;BME280;35735;52.226;21.254;2022-11-20T13:04:54;99898.72;;;0.59;100.00
44988;BME280;35735;52.226;21.254;2022-11-20T13:10:00;99896.91;;;0.58;100.00
44988;BME280;35735;52.226;21.254;2022-11-20T13:15:35;99897.94;;;0.63;100.00
44988;BME280;35735;52.226;21.254;2022-11-20T13:20:44;99891.69;;;0.61;100.00
44988;BME280;35735;52.226;21.254;2022-11-20T13:25:45;99889.78;;;0.57;100.00
44988;BME280;35735;52.226;21.254;2022-11-20T13:30:50;99880.75;;;0.51;100.00
44988;BME280;35735;52.226;21.254;2022-11-20T13:41:30;99876.41;;;0.53;100.00
44988;BME280;35735;52.226;21.254;2022-11-20T13:46:37;99873.84;;;0.57;100.00
44988;BME280;35735;52.226;21.254;2022-11-20T13:51:44;99865.03;;;0.58;100.00
44988;BME280;35735;52.226;21.254;2022-11-20T13:57:01;99858.88;;;0.59;100.00
44988;BME280;35735;52.226;21.254;2022-11-20T14:02:11;99860.62;;;0.58;100.00
44988;BME280;35735;52.226;21.254;2022-11-20T14:07:14;99861.59;;;0.62;100.00
44988;BME280;35735;52.226;21.254;2022-11-20T14:12:18;99848.91;;;0.51;100.00
44988;BME280;35735;52.226;21.254;2022-11-20T14:17:24;99849.72;;;0.49;100.00
44988;BME280;35735;52.226;21.254;2022-11-20T14:22:33;99848.72;;;0.45;100.00
44988;BME280;35735;52.226;21.254;2022-11-20T14:27:36;99843.31;;;0.42;100.00
44988;BME280;35735;52.226;21.254;2022-11-20T14:32:38;99841.75;;;0.22;100.00
44988;BME280;35735;52.226;21.254;2022-11-20T14:37:39;99831.69;;;0.11;100.00
44988;BME280;35735;52.226;21.254;2022-11-20T14:42:43;99829.94;;;-0.15;100.00
44988;BME280;35735;52.226;21.254;2022-11-20T14:47:44;99829.44;;;-0.31;100.00
44988;BME280;35735;52.226;21.254;2022-11-20T14:52:52;99829.03;;;-0.43;100.00
44988;BME280;35735;52.226;21.254;2022-11-20T14:58:02;99827.53;;;-0.61;100.00
44988;BME280;35735;52.226;21.254;2022-11-20T15:03:15;99823.56;;;-0.72;100.00
44988;BME280;35735;52.226;21.254;2022-11-20T15:08:16;99830.56;;;-0.74;100.00
44988;BME280;35735;52.226;21.254;2022-11-20T15:13:29;99824.09;;;-0.82;100.00
44988;BME280;35735;52.226;21.254;2022-11-20T15:18:32;99823.97;;;-0.85;100.00
44988;BME280;35735;52.226;21.254;2022-11-20T15:23:37;99821.13;;;-0.91;100.00
44988;BME280;35735;52.226;21.254;2022-11-20T15:28:40;99815.31;;;-1.05;100.00
44988;BME280;35735;52.226;21.254;2022-11-20T15:33:42;99805.53;;;-1.08;100.00
44988;BME280;35735;52.226;21.254;2022-11-20T15:38:43;99803.00;;;-1.05;100.00
44988;BME280;35735;52.226;21.254;2022-11-20T15:43:43;99807.94;;;-1.14;100.00
44988;BME280;35735;52.226;21.254;2022-11-20T15:48:45;99811.09;;;-1.24;100.00
44988;BME280;35735;52.226;21.254;2022-11-20T15:53:51;99817.13;;;-1.28;100.00
44988;BME280;35735;52.226;21.254;2022-11-20T15:58:52;99813.34;;;-1.35;100.00
44988;BME280;35735;52.226;21.254;2022-11-20T16:03:53;99807.75;;;-1.43;100.00
44988;BME280;35735;52.226;21.254;2022-11-20T16:08:53;99806.78;;;-1.45;100.00
44988;BME280;35735;52.226;21.254;2022-11-20T16:13:54;99810.41;;;-1.43;100.00
44988;BME280;35735;52.226;21.254;2022-11-20T16:18:54;99813.09;;;-1.41;100.00
44988;BME280;35735;52.226;21.254;2022-11-20T16:23:55;99811.53;;;-1.36;100.00
44988;BME280;35735;52.226;21.254;2022-11-20T16:29:01;99815.25;;;-1.31;100.00
44988;BME280;35735;52.226;21.254;2022-11-20T16:34:05;99814.12;;;-1.38;100.00
44988;BME280;35735;52.226;21.254;2022-11-20T16:39:06;99834.84;;;-1.50;100.00
44988;BME280;35735;52.226;21.254;2022-11-20T16:44:09;99815.31;;;-1.52;100.00
44988;BME280;35735;52.226;21.254;2022-11-20T16:49:13;99820.09;;;-1.43;100.00
44988;BME280;35735;52.226;21.254;2022-11-20T16:54:13;99806.69;;;-1.48;100.00
44988;BME280;35735;52.226;21.254;2022-11-20T16:59:14;99794.81;;;-1.58;100.00
44988;BME280;35735;52.226;21.254;2022-11-20T17:04:15;99810.37;;;-1.67;100.00
44988;BME280;35735;52.226;21.254;2022-11-20T17:09:15;99806.66;;;-1.71;100.00
44988;BME280;35735;52.226;21.254;2022-11-20T17:14:16;99798.72;;;-1.71;100.00
44988;BME280;35735;52.226;21.254;2022-11-20T17:19:17;99795.13;;;-1.73;100.00
44988;BME280;35735;52.226;21.254;2022-11-20T17:24:17;99795.94;;;-1.75;100.00
44988;BME280;35735;52.226;21.254;2022-11-20T17:29:18;99811.81;;;-1.75;100.00
44988;BME280;35735;52.226;21.254;2022-11-20T17:34:19;99804.81;;;-1.73;100.00
44988;BME280;35735;52.226;21.254;2022-11-20T17:39:19;99795.00;;;-1.76;100.00
44988;BME280;35735;52.226;21.254;2022-11-20T17:44:20;99794.06;;;-1.78;100.00
44988;BME280;35735;52.226;21.254;2022-11-20T17:49:20;99783.34;;;-1.81;100.00
44988;BME280;35735;52.226;21.254;2022-11-20T17:54:21;99769.53;;;-1.74;100.00
44988;BME280;35735;52.226;21.254;2022-11-20T17:59:21;99763.38;;;-1.73;100.00
44988;BME280;35735;52.226;21.254;2022-11-20T18:04:22;99751.97;;;-1.72;100.00
44988;BME280;35735;52.226;21.254;2022-11-20T18:09:22;99742.22;;;-1.73;100.00
44988;BME280;35735;52.226;21.254;2022-11-20T18:14:23;99731.75;;;-1.70;100.00
44988;BME280;35735;52.226;21.254;2022-11-20T18:19:26;99731.63;;;-1.73;100.00
44988;BME280;35735;52.226;21.254;2022-11-20T18:24:27;99721.59;;;-1.81;100.00
44988;BME280;35735;52.226;21.254;2022-11-20T18:29:28;99717.63;;;-1.93;100.00
44988;BME280;35735;52.226;21.254;2022-11-20T18:34:29;99713.44;;;-2.10;100.00
44988;BME280;35735;52.226;21.254;2022-11-20T18:39:29;99713.88;;;-2.22;100.00
44988;BME280;35735;52.226;21.254;2022-11-20T18:44:31;99706.50;;;-2.29;100.00
44988;BME280;35735;52.226;21.254;2022-11-20T18:49:31;99709.09;;;-2.31;100.00
44988;BME280;35735;52.226;21.254;2022-11-20T18:54:34;99709.47;;;-2.21;100.00
44988;BME280;35735;52.226;21.254;2022-11-20T18:59:35;99702.31;;;-2.24;100.00
44988;BME280;35735;52.226;21.254;2022-11-20T19:04:35;99709.41;;;-2.23;100.00
44988;BME280;35735;52.226;21.254;2022-11-20T19:09:44;99710.91;;;-2.30;100.00
44988;BME280;35735;52.226;21.254;2022-11-20T19:14:47;99704.47;;;-2.36;100.00
44988;BME280;35735;52.226;21.254;2022-11-20T19:19:48;99697.63;;;-2.31;100.00
44988;BME280;35735;52.226;21.254;2022-11-20T19:24:49;99698.59;;;-2.29;100.00
44988;BME280;35735;52.226;21.254;2022-11-20T19:29:49;99690.91;;;-2.23;100.00
44988;BME280;35735;52.226;21.254;2022-11-20T19:34:50;99683.94;;;-2.21;100.00
44988;BME280;35735;52.226;21.254;2022-11-20T19:39:50;99683.72;;;-2.27;100.00
44988;BME280;35735;52.226;21.254;2022-11-20T19:44:51;99680.22;;;-2.26;100.00
44988;BME280;35735;52.226;21.254;2022-11-20T19:49:51;99673.97;;;-2.28;100.00
44988;BME280;35735;52.226;21.254;2022-11-20T19:54:52;99677.50;;;-2.28;100.00
44988;BME280;35735;52.226;21.254;2022-11-20T19:59:52;99678.50;;;-2.24;100.00
44988;BME280;35735;52.226;21.254;2022-11-20T20:04:53;99671.66;;;-2.19;100.00
44988;BME280;35735;52.226;21.254;2022-11-20T20:09:53;99666.50;;;-2.16;100.00
44988;BME280;35735;52.226;21.254;2022-11-20T20:14:54;99656.94;;;-2.12;100.00
44988;BME280;35735;52.226;21.254;2022-11-20T20:19:54;99654.28;;;-2.14;100.00
44988;BME280;35735;52.226;21.254;2022-11-20T20:24:55;99661.22;;;-2.16;100.00
44988;BME280;35735;52.226;21.254;2022-11-20T20:29:55;99655.22;;;-2.12;100.00
44988;BME280;35735;52.226;21.254;2022-11-20T20:34:56;99652.31;;;-2.18;100.00
44988;BME280;35735;52.226;21.254;2022-11-20T20:39:56;99648.19;;;-2.11;100.00
44988;BME280;35735;52.226;21.254;2022-11-20T20:44:57;99659.75;;;-2.08;100.00
44988;BME280;35735;52.226;21.254;2022-11-20T20:49:58;99653.03;;;-1.99;100.00
44988;BME280;35735;52.226;21.254;2022-11-20T20:54:58;99651.19;;;-2.02;100.00
44988;BME280;35735;52.226;21.254;2022-11-20T20:59:59;99648.69;;;-1.97;100.00
44988;BME280;35735;52.226;21.254;2022-11-20T21:04:59;99637.53;;;-1.90;100.00
44988;BME280;35735;52.226;21.254;2022-11-20T21:10:00;99640.44;;;-1.82;100.00
44988;BME280;35735;52.226;21.254;2022-11-20T21:15:00;99632.72;;;-1.76;100.00
44988;BME280;35735;52.226;21.254;2022-11-20T21:20:01;99634.69;;;-1.71;100.00
44988;BME280;35735;52.226;21.254;2022-11-20T21:25:01;99638.41;;;-1.65;100.00
44988;BME280;35735;52.226;21.254;2022-11-20T21:30:02;99649.44;;;-1.53;100.00
44988;BME280;35735;52.226;21.254;2022-11-20T21:35:03;99641.88;;;-1.42;100.00
44988;BME280;35735;52.226;21.254;2022-11-20T21:40:04;99641.88;;;-1.42;100.00
44988;BME280;35735;52.226;21.254;2022-11-20T21:45:06;99637.38;;;-1.45;100.00
44988;BME280;35735;52.226;21.254;2022-11-20T21:50:07;99623.16;;;-1.48;100.00
44988;BME280;35735;52.226;21.254;2022-11-20T21:55:07;99632.03;;;-1.46;100.00
44988;BME280;35735;52.226;21.254;2022-11-20T22:00:09;99627.00;;;-1.39;100.00
44988;BME280;35735;52.226;21.254;2022-11-20T22:05:11;99632.41;;;-1.36;100.00
44988;BME280;35735;52.226;21.254;2022-11-20T22:10:11;99630.81;;;-1.31;100.00
44988;BME280;35735;52.226;21.254;2022-11-20T22:15:12;99628.91;;;-1.35;100.00
44988;BME280;35735;52.226;21.254;2022-11-20T22:20:15;99631.69;;;-1.32;100.00
44988;BME280;35735;52.226;21.254;2022-11-20T22:25:15;99637.09;;;-1.28;100.00
44988;BME280;35735;52.226;21.254;2022-11-20T22:30:16;99638.81;;;-1.29;100.00
44988;BME280;35735;52.226;21.254;2022-11-20T22:35:16;99637.03;;;-1.30;100.00
44988;BME280;35735;52.226;21.254;2022-11-20T22:40:17;99632.50;;;-1.33;100.00
44988;BME280;35735;52.226;21.254;2022-11-20T22:45:17;99625.50;;;-1.31;100.00
44988;BME280;35735;52.226;21.254;2022-11-20T22:50:18;99626.50;;;-1.28;100.00
44988;BME280;35735;52.226;21.254;2022-11-20T22:55:19;99616.72;;;-1.29;100.00
44988;BME280;35735;52.226;21.254;2022-11-20T23:00:19;99613.97;;;-1.33;100.00
44988;BME280;35735;52.226;21.254;2022-11-20T23:05:20;99619.91;;;-1.40;100.00
44988;BME280;35735;52.226;21.254;2022-11-20T23:10:20;99626.00;;;-1.42;100.00
44988;BME280;35735;52.226;21.254;2022-11-20T23:15:21;99625.88;;;-1.45;100.00
44988;BME280;35735;52.226;21.254;2022-11-20T23:20:21;99623.34;;;-1.42;100.00
44988;BME280;35735;52.226;21.254;2022-11-20T23:25:22;99629.50;;;-1.43;100.00
44988;BME280;35735;52.226;21.254;2022-11-20T23:30:23;99635.47;;;-1.49;100.00
44988;BME280;35735;52.226;21.254;2022-11-20T23:35:23;99640.56;;;-1.55;100.00
44988;BME280;35735;52.226;21.254;2022-11-20T23:40:24;99646.34;;;-1.65;100.00
44988;BME280;35735;52.226;21.254;2022-11-20T23:45:24;99635.56;;;-1.72;100.00
44988;BME280;35735;52.226;21.254;2022-11-20T23:50:25;99629.19;;;-1.77;100.00
44988;BME280;35735;52.226;21.254;2022-11-20T23:55:25;99630.53;;;-1.88;100.00
